createdAt,value
2017-10-15T00:01:04.121Z,7.82
2017-10-15T00:03:31.633Z,7.80
2017-10-15T00:05:59.151Z,7.70
2017-10-15T00:08:26.652Z,7.56
2017-10-15T00:10:54.168Z,7.47
2017-10-15T00:13:21.677Z,7.34
2017-10-15T00:15:49.188Z,7.47
2017-10-15T00:18:16.710Z,7.42
2017-10-15T00:20:44.227Z,7.41
2017-10-15T00:23:11.744Z,7.42
2017-10-15T00:25:39.253Z,7.28
2017-10-15T00:28:06.749Z,7.46
2017-10-15T00:30:34.263Z,7.44
2017-10-15T00:33:01.792Z,7.33
2017-10-15T00:35:29.315Z,7.32
2017-10-15T00:37:56.822Z,7.16
2017-10-15T00:40:24.367Z,7.10
2017-10-15T00:42:51.867Z,7.24
2017-10-15T00:45:19.388Z,7.17
2017-10-15T00:47:46.885Z,7.17
2017-10-15T00:50:14.423Z,7.05
2017-10-15T00:52:41.920Z,7.00
2017-10-15T00:55:09.489Z,6.99
2017-10-15T00:57:37.044Z,6.81
2017-10-15T01:00:04.551Z,6.70
2017-10-15T01:02:32.064Z,6.65
2017-10-15T01:04:59.606Z,6.62
2017-10-15T01:07:27.122Z,6.65
2017-10-15T01:09:54.634Z,6.82
2017-10-15T01:12:22.144Z,6.71
2017-10-15T01:14:49.650Z,6.78
2017-10-15T01:17:17.139Z,6.90
2017-10-15T01:19:44.655Z,7.01
2017-10-15T01:22:12.167Z,6.82
2017-10-15T01:24:39.679Z,6.84
2017-10-15T01:27:07.185Z,6.69
2017-10-15T01:29:34.698Z,6.60
2017-10-15T01:32:02.216Z,6.61
2017-10-15T01:34:29.739Z,6.71
2017-10-15T01:36:57.238Z,6.55
2017-10-15T01:39:24.759Z,6.71
2017-10-15T01:41:52.280Z,6.53
2017-10-15T01:44:19.780Z,6.52
2017-10-15T01:46:47.265Z,6.83
2017-10-15T01:49:14.765Z,6.78
2017-10-15T01:51:42.275Z,6.67
2017-10-15T01:54:09.784Z,6.60
2017-10-15T01:56:37.330Z,6.69
2017-10-15T01:59:04.834Z,6.66
2017-10-15T02:01:32.343Z,6.75
2017-10-15T02:03:59.855Z,6.53
2017-10-15T02:06:27.375Z,6.56
2017-10-15T02:08:54.871Z,6.62
2017-10-15T02:11:22.372Z,6.50
2017-10-15T02:13:49.868Z,6.47
2017-10-15T02:16:17.363Z,6.43
2017-10-15T02:18:44.868Z,6.51
2017-10-15T02:21:12.368Z,6.47
2017-10-15T02:23:39.875Z,6.38
2017-10-15T02:26:07.375Z,6.12
2017-10-15T02:28:34.898Z,6.12
2017-10-15T02:31:02.389Z,6.05
2017-10-15T02:33:29.901Z,6.13
2017-10-15T02:35:57.399Z,6.19
2017-10-15T02:38:24.912Z,6.04
2017-10-15T02:40:52.425Z,6.09
2017-10-15T02:43:19.933Z,6.10
2017-10-15T02:45:47.440Z,6.17
2017-10-15T02:48:14.977Z,6.12
2017-10-15T02:50:42.473Z,6.59
2017-10-15T02:53:09.967Z,6.57
2017-10-15T02:55:37.473Z,6.57
2017-10-15T02:58:04.988Z,6.50
2017-10-15T03:00:32.504Z,6.36
2017-10-15T03:03:00.002Z,6.34
2017-10-15T03:05:27.510Z,6.35
2017-10-15T03:07:55.014Z,6.29
2017-10-15T03:10:22.508Z,6.21
2017-10-15T03:12:50.001Z,6.42
2017-10-15T03:15:17.539Z,6.56
2017-10-15T03:17:45.051Z,6.46
2017-10-15T03:20:12.571Z,6.32
2017-10-15T03:22:40.078Z,6.12
2017-10-15T03:25:07.582Z,6.00
2017-10-15T03:27:35.108Z,6.07
2017-10-15T03:30:02.607Z,6.09
2017-10-15T03:32:30.130Z,6.03
2017-10-15T03:34:57.635Z,6.02
2017-10-15T03:37:25.144Z,6.09
2017-10-15T03:39:52.647Z,6.27
2017-10-15T03:42:20.157Z,6.28
2017-10-15T03:44:47.667Z,6.28
2017-10-15T03:47:15.166Z,6.25
2017-10-15T03:49:42.681Z,6.32
2017-10-15T03:58:56.538Z,6.26
2017-10-15T04:01:24.091Z,6.22
2017-10-15T04:03:51.606Z,6.24
2017-10-15T04:06:19.114Z,6.57
2017-10-15T04:08:46.629Z,6.67
2017-10-15T04:11:14.132Z,6.75
2017-10-15T04:13:41.630Z,6.53
2017-10-15T04:16:09.135Z,6.80
2017-10-15T04:18:36.634Z,7.04
2017-10-15T04:21:04.157Z,6.59
2017-10-15T04:23:31.656Z,6.48
2017-10-15T04:25:59.201Z,6.53
2017-10-15T04:28:26.711Z,6.34
2017-10-15T04:30:54.231Z,6.23
2017-10-15T04:33:21.739Z,6.17
2017-10-15T04:35:49.252Z,6.09
2017-10-15T04:38:16.776Z,6.08
2017-10-15T04:40:44.276Z,6.57
2017-10-15T04:43:11.775Z,6.08
2017-10-15T04:45:39.316Z,6.01
2017-10-15T04:48:06.828Z,5.92
2017-10-15T04:50:34.343Z,5.88
2017-10-15T04:53:01.874Z,6.04
2017-10-15T04:55:29.373Z,6.38
2017-10-15T04:57:56.885Z,6.03
2017-10-15T05:00:24.396Z,5.84
2017-10-15T05:02:51.909Z,5.86
2017-10-15T05:05:19.419Z,5.90
2017-10-15T05:07:46.921Z,5.80
2017-10-15T05:10:14.437Z,5.95
2017-10-15T05:12:41.976Z,5.79
2017-10-15T05:15:09.517Z,5.67
2017-10-15T05:17:37.050Z,5.63
2017-10-15T05:20:04.567Z,5.55
2017-10-15T05:22:32.087Z,5.66
2017-10-15T05:24:59.602Z,5.68
2017-10-15T05:27:27.124Z,5.72
2017-10-15T05:29:54.647Z,5.70
2017-10-15T05:32:22.175Z,5.78
2017-10-15T05:34:49.692Z,6.13
2017-10-15T05:37:17.210Z,5.88
2017-10-15T05:39:44.719Z,5.75
2017-10-15T05:42:12.228Z,5.73
2017-10-15T05:44:39.738Z,5.69
2017-10-15T05:47:07.250Z,5.66
2017-10-15T05:49:34.773Z,5.70
2017-10-15T05:52:02.286Z,5.63
2017-10-15T05:54:29.817Z,5.57
2017-10-15T05:56:57.325Z,5.62
2017-10-15T05:59:24.850Z,5.70
2017-10-15T06:01:52.368Z,5.81
2017-10-15T06:04:19.895Z,5.74
2017-10-15T06:06:47.410Z,5.69
2017-10-15T06:09:14.937Z,5.66
2017-10-15T06:11:42.451Z,5.73
2017-10-15T06:14:09.966Z,5.80
2017-10-15T06:16:37.465Z,5.98
2017-10-15T06:19:04.980Z,6.05
2017-10-15T06:21:32.484Z,5.93
2017-10-15T06:23:59.980Z,6.04
2017-10-15T06:26:27.485Z,6.17
2017-10-15T06:28:55.012Z,6.05
2017-10-15T06:31:22.539Z,5.91
2017-10-15T06:33:50.043Z,5.93
2017-10-15T06:36:17.547Z,5.91
2017-10-15T06:38:45.054Z,6.00
2017-10-15T06:41:12.569Z,6.06
2017-10-15T06:43:40.083Z,6.51
2017-10-15T06:46:07.582Z,6.38
2017-10-15T06:48:35.093Z,6.52
2017-10-15T06:51:02.607Z,6.74
2017-10-15T06:53:30.123Z,6.79
2017-10-15T06:55:57.639Z,7.01
2017-10-15T06:58:25.163Z,7.02
2017-10-15T07:00:52.690Z,7.17
2017-10-15T07:03:20.200Z,7.52
2017-10-15T07:05:47.708Z,7.47
2017-10-15T07:08:15.231Z,7.39
2017-10-15T07:10:42.777Z,7.45
2017-10-15T07:13:10.319Z,7.58
2017-10-15T07:15:37.890Z,7.69
2017-10-15T07:18:05.400Z,8.03
2017-10-15T07:20:32.958Z,8.28
2017-10-15T07:23:00.456Z,8.58
2017-10-15T07:25:27.959Z,8.88
2017-10-15T07:27:55.479Z,9.21
2017-10-15T07:30:23.002Z,9.30
2017-10-15T07:32:50.530Z,9.62
2017-10-15T07:35:18.047Z,9.90
2017-10-15T07:37:45.608Z,10.45
2017-10-15T07:40:13.112Z,10.78
2017-10-15T07:42:40.623Z,11.00
2017-10-15T07:45:08.127Z,11.41
2017-10-15T07:47:35.696Z,11.54
2017-10-15T07:50:03.215Z,11.99
2017-10-15T07:52:30.733Z,12.63
2017-10-15T07:54:58.232Z,13.28
2017-10-15T07:57:25.731Z,13.84
2017-10-15T07:59:53.246Z,14.04
2017-10-15T08:02:20.745Z,16.69
2017-10-15T08:04:48.252Z,17.64
2017-10-15T08:07:15.740Z,19.93
2017-10-15T08:09:43.242Z,21.22
2017-10-15T08:12:10.780Z,21.33
2017-10-15T08:14:38.300Z,22.35
2017-10-15T08:17:05.840Z,22.80
2017-10-15T08:19:33.344Z,21.75
2017-10-15T08:22:00.862Z,22.11
2017-10-15T08:24:28.422Z,23.36
2017-10-15T08:26:55.931Z,23.48
2017-10-15T08:29:23.461Z,21.87
2017-10-15T08:31:50.979Z,23.10
2017-10-15T08:34:18.487Z,24.18
2017-10-15T08:36:46.004Z,23.37
2017-10-15T08:39:13.521Z,24.36
2017-10-15T08:41:41.042Z,24.55
2017-10-15T08:44:08.558Z,24.42
2017-10-15T08:46:36.107Z,27.39
2017-10-15T08:49:03.612Z,27.55
2017-10-15T08:51:31.116Z,28.30
2017-10-15T08:53:58.642Z,28.03
2017-10-15T08:56:26.174Z,28.33
2017-10-15T08:58:53.780Z,23.63
2017-10-15T09:01:21.279Z,26.64
2017-10-15T09:03:48.784Z,28.78
2017-10-15T09:06:16.286Z,29.20
2017-10-15T09:08:43.787Z,27.01
2017-10-15T09:11:11.312Z,28.37
2017-10-15T09:13:38.838Z,30.33
2017-10-15T09:16:06.369Z,29.71
2017-10-15T09:18:33.893Z,26.05
2017-10-15T09:21:01.416Z,30.49
2017-10-15T09:23:28.930Z,30.25
2017-10-15T09:25:56.460Z,27.36
2017-10-15T09:28:23.966Z,27.08
2017-10-15T09:30:51.510Z,28.11
2017-10-15T09:33:19.049Z,27.10
2017-10-15T09:35:46.610Z,30.13
2017-10-15T09:38:14.196Z,26.23
2017-10-15T09:40:41.730Z,28.61
2017-10-15T09:43:09.243Z,26.82
2017-10-15T09:45:36.767Z,27.52
2017-10-15T09:48:04.279Z,29.65
2017-10-15T09:50:31.786Z,27.33
2017-10-15T09:52:59.326Z,30.68
2017-10-15T09:55:26.840Z,30.22
2017-10-15T09:57:54.363Z,29.89
2017-10-15T10:00:21.864Z,27.59
2017-10-15T10:02:49.398Z,29.44
2017-10-15T10:05:16.918Z,31.13
2017-10-15T10:07:44.417Z,31.25
2017-10-15T10:10:11.943Z,30.57
2017-10-15T10:12:39.479Z,30.67
2017-10-15T10:15:07.006Z,30.46
2017-10-15T10:17:34.519Z,30.68
2017-10-15T10:20:02.027Z,31.89
2017-10-15T10:22:29.596Z,28.97
2017-10-15T10:24:57.144Z,28.72
2017-10-15T10:27:24.672Z,33.14
2017-10-15T10:29:52.206Z,34.30
2017-10-15T10:32:19.727Z,34.47
2017-10-15T10:34:47.232Z,33.47
2017-10-15T10:37:14.762Z,31.65
2017-10-15T10:39:42.298Z,31.52
2017-10-15T10:42:09.807Z,33.03
2017-10-15T10:44:37.329Z,30.45
2017-10-15T10:47:04.870Z,31.21
2017-10-15T10:49:32.416Z,30.54
2017-10-15T10:51:59.926Z,32.68
2017-10-15T10:54:27.434Z,29.96
2017-10-15T10:56:54.951Z,31.23
2017-10-15T10:59:22.458Z,31.43
2017-10-15T11:01:49.972Z,32.96
2017-10-15T11:04:17.516Z,33.88
2017-10-15T11:06:45.016Z,33.43
2017-10-15T11:09:12.516Z,33.94
2017-10-15T11:11:40.231Z,31.43
2017-10-15T11:14:07.736Z,33.54
2017-10-15T11:16:35.261Z,32.58
2017-10-15T11:19:02.781Z,33.25
2017-10-15T11:21:30.287Z,33.20
2017-10-15T11:23:57.789Z,31.97
2017-10-15T11:26:25.295Z,31.70
2017-10-15T11:28:52.826Z,32.44
2017-10-15T11:31:20.343Z,32.10
2017-10-15T11:33:47.855Z,31.53
2017-10-15T11:36:15.490Z,30.74
2017-10-15T11:38:43.614Z,33.71
2017-10-15T11:41:11.171Z,32.55
2017-10-15T11:43:38.730Z,34.87
2017-10-15T11:46:06.226Z,33.77
2017-10-15T11:48:33.723Z,32.94
2017-10-15T11:51:01.279Z,33.24
2017-10-15T11:53:28.812Z,34.31
2017-10-15T11:55:56.331Z,32.04
2017-10-15T11:58:23.873Z,31.61
2017-10-15T12:00:51.387Z,30.37
2017-10-15T12:03:18.889Z,29.04
2017-10-15T12:05:46.402Z,27.57
2017-10-15T12:08:13.914Z,30.29
2017-10-15T12:10:41.414Z,31.55
2017-10-15T12:13:08.923Z,30.85
2017-10-15T12:15:36.550Z,32.78
2017-10-15T12:18:04.050Z,32.17
2017-10-15T12:20:31.548Z,33.01
2017-10-15T12:22:59.065Z,32.99
2017-10-15T12:25:26.656Z,33.70
2017-10-15T12:27:54.181Z,32.28
2017-10-15T12:30:21.701Z,31.96
2017-10-15T12:32:49.204Z,32.37
2017-10-15T12:35:16.720Z,33.42
2017-10-15T12:37:44.232Z,33.37
2017-10-15T12:40:11.755Z,34.07
2017-10-15T12:42:39.261Z,33.34
2017-10-15T12:45:06.783Z,33.48
2017-10-15T12:47:34.322Z,35.93
2017-10-15T12:50:01.830Z,34.55
2017-10-15T12:52:29.331Z,33.73
2017-10-15T12:54:56.856Z,30.62
2017-10-15T12:57:24.381Z,30.26
2017-10-15T12:59:51.903Z,32.24
2017-10-15T13:02:19.397Z,33.01
2017-10-15T13:04:46.908Z,32.31
2017-10-15T13:07:14.434Z,31.23
2017-10-15T13:09:41.961Z,30.28
2017-10-15T13:12:09.471Z,30.61
2017-10-15T13:14:36.988Z,29.30
2017-10-15T13:17:04.531Z,28.71
2017-10-15T13:19:32.050Z,29.06
2017-10-15T13:21:59.577Z,27.70
2017-10-15T13:24:27.151Z,28.00
2017-10-15T13:26:54.671Z,28.18
2017-10-15T13:29:22.191Z,28.91
2017-10-15T13:31:49.701Z,28.71
2017-10-15T13:34:17.221Z,27.89
2017-10-15T13:36:44.724Z,30.45
2017-10-15T13:39:12.242Z,29.07
2017-10-15T13:41:39.813Z,28.15
2017-10-15T13:44:07.323Z,29.03
2017-10-15T13:46:34.829Z,31.58
2017-10-15T13:49:02.363Z,29.35
2017-10-15T13:51:29.892Z,29.52
2017-10-15T13:53:57.410Z,30.81
2017-10-15T13:56:24.946Z,31.55
2017-10-15T13:58:52.455Z,30.45
2017-10-15T14:01:19.963Z,29.45
2017-10-15T14:03:47.500Z,29.38
2017-10-15T14:06:15.018Z,29.54
2017-10-15T14:08:42.546Z,30.37
2017-10-15T14:11:10.076Z,28.78
2017-10-15T14:13:37.592Z,29.18
2017-10-15T14:16:05.090Z,29.68
2017-10-15T14:18:32.627Z,29.51
2017-10-15T14:21:00.163Z,28.69
2017-10-15T14:23:27.672Z,26.87
2017-10-15T14:25:55.176Z,26.29
2017-10-15T14:28:22.677Z,25.89
2017-10-15T14:30:50.200Z,25.36
2017-10-15T14:33:17.717Z,24.81
2017-10-15T14:35:45.267Z,24.14
2017-10-15T14:38:12.768Z,24.42
2017-10-15T14:40:40.301Z,23.67
2017-10-15T14:43:07.818Z,22.64
2017-10-15T14:45:36.068Z,22.20
2017-10-15T14:48:03.610Z,21.65
2017-10-15T14:50:31.151Z,21.55
2017-10-15T14:52:58.767Z,21.17
2017-10-15T14:55:26.306Z,21.14
2017-10-15T14:57:53.816Z,20.78
2017-10-15T15:00:21.338Z,20.50
2017-10-15T15:02:48.856Z,20.36
2017-10-15T15:05:16.404Z,20.26
2017-10-15T15:07:43.912Z,20.06
2017-10-15T15:10:11.432Z,19.94
2017-10-15T15:12:38.977Z,19.95
2017-10-15T15:15:06.500Z,19.75
2017-10-15T15:17:34.335Z,19.63
2017-10-15T15:20:01.867Z,19.51
2017-10-15T15:22:29.413Z,19.42
2017-10-15T15:24:56.953Z,19.15
2017-10-15T15:27:24.476Z,19.09
2017-10-15T15:29:51.989Z,19.27
2017-10-15T15:32:19.512Z,19.24
2017-10-15T15:34:47.043Z,19.02
2017-10-15T15:37:14.574Z,18.82
2017-10-15T15:39:42.087Z,18.64
2017-10-15T15:42:09.600Z,18.49
2017-10-15T15:44:40.211Z,18.41
2017-10-15T15:47:07.749Z,18.16
2017-10-15T15:49:35.299Z,17.98
2017-10-15T15:52:02.823Z,18.04
2017-10-15T15:54:30.335Z,18.12
2017-10-15T15:56:57.876Z,18.17
2017-10-15T15:59:25.406Z,18.08
2017-10-15T16:01:52.947Z,17.72
2017-10-15T16:04:20.462Z,17.46
2017-10-15T16:06:47.982Z,17.23
2017-10-15T16:09:15.519Z,16.98
2017-10-15T16:11:43.030Z,17.18
2017-10-15T16:14:10.556Z,16.96
2017-10-15T16:16:38.076Z,16.94
2017-10-15T16:19:05.599Z,16.94
2017-10-15T16:21:33.115Z,16.75
2017-10-15T16:24:00.652Z,16.49
2017-10-15T16:26:28.188Z,16.21
2017-10-15T16:28:55.752Z,15.96
2017-10-15T16:31:23.287Z,15.96
2017-10-15T16:33:50.795Z,15.48
2017-10-15T16:36:18.337Z,15.35
2017-10-15T16:38:45.967Z,15.42
2017-10-15T16:41:13.487Z,15.06
2017-10-15T16:43:41.051Z,14.92
2017-10-15T16:46:08.917Z,14.86
2017-10-15T16:48:36.437Z,14.65
2017-10-15T16:51:04.093Z,14.61
2017-10-15T16:53:31.596Z,14.54
2017-10-15T16:55:59.212Z,14.45
2017-10-15T16:58:26.739Z,14.18
2017-10-15T17:00:54.263Z,14.15
2017-10-15T17:03:21.788Z,14.25
2017-10-15T17:05:49.303Z,14.29
2017-10-15T17:08:16.856Z,14.04
2017-10-15T17:10:44.374Z,13.53
2017-10-15T17:13:11.901Z,14.07
2017-10-15T17:15:39.423Z,13.69
2017-10-15T17:18:06.953Z,13.70
2017-10-15T17:20:34.486Z,13.74
2017-10-15T17:23:02.013Z,13.25
2017-10-15T17:25:29.569Z,13.25
2017-10-15T17:27:57.115Z,13.49
2017-10-15T17:30:24.623Z,13.64
2017-10-15T17:32:52.147Z,13.54
2017-10-15T17:35:19.675Z,13.29
2017-10-15T17:37:47.200Z,13.26
2017-10-15T17:40:14.770Z,13.15
2017-10-15T17:42:42.283Z,12.83
2017-10-15T17:45:09.831Z,12.70
2017-10-15T17:47:37.339Z,12.57
2017-10-15T17:50:04.856Z,12.75
2017-10-15T17:52:32.371Z,12.69
2017-10-15T17:54:59.946Z,12.48
2017-10-15T17:57:27.471Z,12.47
2017-10-15T17:59:54.997Z,12.40
2017-10-15T18:02:28.641Z,12.45
2017-10-15T18:04:56.155Z,12.66
2017-10-15T18:07:23.708Z,12.43
2017-10-15T18:09:51.252Z,12.38
2017-10-15T18:12:18.815Z,12.34
2017-10-15T18:14:46.420Z,12.49
2017-10-15T18:17:13.921Z,12.27
2017-10-15T18:19:41.474Z,12.35
2017-10-15T18:22:09.004Z,12.49
2017-10-15T18:24:36.577Z,12.08
2017-10-15T18:27:04.112Z,11.79
2017-10-15T18:29:31.641Z,12.02
2017-10-15T18:31:59.217Z,12.13
2017-10-15T18:34:26.889Z,12.17
2017-10-15T18:36:54.454Z,11.93
2017-10-15T18:39:22.054Z,12.05
2017-10-15T18:41:49.754Z,12.15
2017-10-15T18:44:17.334Z,11.72
2017-10-15T18:46:45.195Z,11.68
2017-10-15T18:49:13.069Z,11.82
2017-10-15T18:51:41.030Z,11.58
2017-10-15T18:54:08.998Z,11.80
2017-10-15T18:56:36.967Z,11.59
2017-10-15T18:59:04.937Z,11.25
2017-10-15T19:01:33.006Z,11.21
2017-10-15T19:04:00.977Z,11.51
2017-10-15T19:06:28.946Z,11.61
2017-10-15T19:08:57.018Z,11.28
2017-10-15T19:11:24.982Z,11.30
2017-10-15T19:13:52.951Z,11.45
2017-10-15T19:16:21.022Z,10.98
2017-10-15T19:18:49.194Z,10.92
2017-10-15T19:21:17.193Z,11.05
2017-10-15T19:23:45.308Z,10.98
2017-10-15T19:26:13.202Z,10.74
2017-10-15T19:28:41.273Z,10.91
2017-10-15T19:31:09.240Z,10.78
2017-10-15T19:33:37.313Z,10.67
2017-10-15T19:36:05.394Z,10.71
2017-10-15T19:38:33.457Z,10.85
2017-10-15T19:41:01.423Z,10.65
2017-10-15T19:43:29.499Z,10.74
2017-10-15T19:45:57.361Z,10.84
2017-10-15T19:48:25.322Z,10.80
2017-10-15T19:50:53.400Z,10.69
2017-10-15T19:53:21.265Z,10.56
2017-10-15T19:55:49.130Z,10.72
2017-10-15T19:58:17.000Z,10.54
2017-10-15T20:00:45.275Z,10.52
2017-10-15T20:03:12.933Z,10.42
2017-10-15T20:05:40.487Z,10.41
2017-10-15T20:08:08.033Z,10.13
2017-10-15T20:10:35.539Z,10.07
2017-10-15T20:13:03.066Z,9.96
2017-10-15T20:15:30.574Z,10.03
2017-10-15T20:17:58.101Z,10.26
2017-10-15T20:20:25.641Z,10.25
2017-10-15T20:22:53.167Z,10.22
2017-10-15T20:25:20.688Z,10.39
2017-10-15T20:27:49.548Z,10.35
2017-10-15T20:30:17.071Z,10.11
2017-10-15T20:32:44.606Z,9.95
2017-10-15T20:35:12.152Z,9.79
2017-10-15T20:37:39.662Z,9.88
2017-10-15T20:40:07.166Z,10.09
2017-10-15T20:42:34.700Z,10.06
2017-10-15T20:45:02.212Z,10.09
2017-10-15T20:47:29.736Z,10.19
2017-10-15T20:49:57.276Z,10.04
2017-10-15T20:52:26.063Z,10.00
2017-10-15T20:54:53.639Z,9.67
2017-10-15T20:57:21.143Z,9.56
2017-10-15T20:59:48.691Z,9.25
2017-10-15T21:02:16.232Z,9.38
2017-10-15T21:04:43.751Z,9.55
2017-10-15T21:07:11.274Z,9.36
2017-10-15T21:09:38.807Z,9.25
2017-10-15T21:12:06.351Z,9.15
2017-10-15T21:14:33.855Z,9.14
2017-10-15T21:17:01.366Z,9.17
2017-10-15T21:19:28.897Z,9.23
2017-10-15T21:21:56.429Z,9.42
2017-10-15T21:24:23.957Z,9.12
2017-10-15T21:26:51.573Z,9.16
2017-10-15T21:29:19.100Z,9.30
2017-10-15T21:31:46.677Z,9.34
2017-10-15T21:34:14.194Z,9.06
2017-10-15T21:36:41.703Z,9.10
2017-10-15T21:39:09.220Z,9.38
2017-10-15T21:41:36.728Z,9.57
2017-10-15T21:44:04.230Z,9.13
2017-10-15T21:46:31.752Z,9.04
2017-10-15T21:48:59.262Z,8.97
2017-10-15T21:51:26.759Z,9.09
2017-10-15T21:53:54.280Z,9.07
2017-10-15T21:56:21.808Z,9.05
2017-10-15T21:58:49.332Z,8.90
2017-10-15T22:01:16.841Z,8.86
2017-10-15T22:03:44.380Z,8.71
2017-10-15T22:06:11.915Z,8.37
2017-10-15T22:08:39.418Z,8.44
2017-10-15T22:11:06.944Z,8.44
2017-10-15T22:13:34.463Z,8.15
2017-10-15T22:16:01.999Z,8.34
2017-10-15T22:18:35.059Z,8.41
2017-10-15T22:21:08.171Z,8.53
2017-10-15T22:23:35.697Z,8.74
2017-10-15T22:26:03.226Z,8.66
2017-10-15T22:28:30.761Z,8.58
2017-10-15T22:30:58.297Z,8.60
2017-10-15T22:33:25.837Z,8.27
2017-10-15T22:35:53.348Z,8.14
2017-10-15T22:38:20.857Z,8.05
2017-10-15T22:40:48.380Z,8.11
2017-10-15T22:43:15.885Z,8.12
2017-10-15T22:45:43.411Z,8.03
2017-10-15T22:48:10.930Z,7.73
2017-10-15T22:50:38.422Z,7.75
2017-10-15T22:53:05.930Z,7.95
2017-10-15T22:55:33.434Z,8.00
2017-10-15T22:58:00.973Z,7.91
2017-10-15T23:00:28.607Z,7.78
2017-10-15T23:02:56.146Z,7.66
2017-10-15T23:05:23.655Z,7.83
2017-10-15T23:07:51.177Z,7.94
2017-10-15T23:10:18.678Z,8.18
2017-10-15T23:12:46.175Z,7.98
2017-10-15T23:15:13.684Z,7.65
2017-10-15T23:17:41.195Z,7.58
2017-10-15T23:20:08.707Z,7.48
2017-10-15T23:22:36.216Z,7.57
2017-10-15T23:25:03.731Z,7.56
2017-10-15T23:27:31.254Z,7.75
2017-10-15T23:29:58.765Z,7.81
2017-10-15T23:32:26.271Z,7.88
2017-10-15T23:34:53.782Z,8.01
2017-10-15T23:37:21.282Z,7.76
2017-10-15T23:39:48.778Z,7.48
2017-10-15T23:42:16.279Z,7.33
2017-10-15T23:44:43.787Z,7.60
2017-10-15T23:47:11.290Z,7.50
2017-10-15T23:49:38.800Z,7.42
2017-10-15T23:52:06.315Z,7.49
2017-10-15T23:54:33.839Z,7.56
2017-10-15T23:57:01.343Z,7.42
2017-10-15T23:59:28.875Z,7.33
